createdAt,value
2023-11-02T00:01:52.648Z,1006.2
2023-11-02T00:07:41.169Z,1006
2023-11-02T00:12:53.628Z,1005.9
2023-11-02T00:18:28.833Z,1005.8
2023-11-02T00:23:52.147Z,1005.7
2023-11-02T00:29:34.604Z,1005.4
2023-11-02T00:35:16.365Z,1005.2
2023-11-02T00:40:31.475Z,1005.1
2023-11-02T00:46:03.638Z,1005
2023-11-02T00:51:32.326Z,1005
2023-11-02T00:57:23.227Z,1004.8
2023-11-02T01:02:42.483Z,1004.6
2023-11-02T01:08:20.626Z,1004.6
2023-11-02T01:13:45.506Z,1004.6
2023-11-02T01:19:11.643Z,1004.4
2023-11-02T01:24:54.618Z,1004.1
2023-11-02T01:30:18.335Z,1004.1
2023-11-02T01:41:19.590Z,1003.8
2023-11-02T01:47:01.561Z,1003.7
2023-11-02T01:52:39.223Z,1003.4
2023-11-02T01:57:59.260Z,1002.8
2023-11-02T02:03:32.409Z,1002.5
2023-11-02T02:09:15.174Z,1002.5
2023-11-02T02:14:45.449Z,1002.1
2023-11-02T02:20:11.429Z,1002
2023-11-02T02:25:30.345Z,1002.4
2023-11-02T02:31:19.140Z,1002.2
2023-11-02T02:36:43.808Z,1002.1
2023-11-02T02:42:16.310Z,1002.2
2023-11-02T02:47:57.878Z,1002.3
2023-11-02T02:53:13.443Z,1002
2023-11-02T02:59:00.644Z,1002.1
2023-11-02T03:04:25.800Z,1001.8
2023-11-02T03:09:48.651Z,1001.4
2023-11-02T03:15:26.001Z,1001.4
2023-11-02T03:20:52.202Z,1001.3
2023-11-02T03:26:16.339Z,1001
2023-11-02T03:32:10.757Z,1000.7
2023-11-02T03:37:33.249Z,1000.8
2023-11-02T03:42:49.703Z,1000.5
2023-11-02T03:48:20.485Z,1000.5
2023-11-02T03:54:12.800Z,1000.2
2023-11-02T03:59:42.941Z,1000
2023-11-02T04:05:17.809Z,999.6
2023-11-02T04:21:49.341Z,999.1
2023-11-02T04:27:07.439Z,998.9
2023-11-02T04:32:43.167Z,998.8
2023-11-02T04:38:03.337Z,999.1
2023-11-02T04:43:53.252Z,998.7
2023-11-02T04:49:27.468Z,998.5
2023-11-02T04:55:03.083Z,998.4
2023-11-02T05:00:19.936Z,998
2023-11-02T05:06:04.645Z,997.5
2023-11-02T05:11:40.094Z,997.6
2023-11-02T05:17:05.096Z,997.6
2023-11-02T05:22:18.654Z,997.8
2023-11-02T05:27:53.948Z,998.1
2023-11-02T05:33:19.643Z,997.9
2023-11-02T05:39:02.810Z,998.4
2023-11-02T05:44:26.480Z,998.2
2023-11-02T05:49:55.612Z,998.2
2023-11-02T06:06:34.594Z,998.3
2023-11-02T06:12:13.628Z,998.2
2023-11-02T06:17:40.445Z,998.1
2023-11-02T06:23:05.564Z,998
2023-11-02T06:29:01.022Z,998.2
2023-11-02T06:34:05.699Z,998.3
2023-11-02T06:39:39.761Z,998.2
2023-11-02T06:45:12.501Z,998.2
2023-11-02T06:56:21.500Z,998.2
2023-11-02T07:02:00.335Z,998.2
2023-11-02T07:07:42.011Z,998
2023-11-02T07:12:50.570Z,997.9
2023-11-02T07:18:21.868Z,998.1
2023-11-02T07:23:55.624Z,997.8
2023-11-02T07:29:31.091Z,997.8
2023-11-02T07:35:14.756Z,997.9
2023-11-02T07:40:36.487Z,998.2
2023-11-02T07:51:42.736Z,998.4
2023-11-02T07:57:05.569Z,998.3
2023-11-02T08:02:50.258Z,998.3
2023-11-02T08:08:07.123Z,998.3
2023-11-02T08:13:37.171Z,998.4
2023-11-02T08:19:24.809Z,998.3
2023-11-02T08:25:05.224Z,998.4
2023-11-02T08:30:32.828Z,998.8
2023-11-02T08:41:13.139Z,998.8
2023-11-02T08:47:05.380Z,998.9
2023-11-02T08:52:42.879Z,999.1
2023-11-02T08:57:47.198Z,999.3
2023-11-02T09:03:36.272Z,999.1
2023-11-02T09:09:06.777Z,998.9
2023-11-02T09:14:41.330Z,999
2023-11-02T09:20:09.368Z,999.2
2023-11-02T09:25:47.100Z,999.5
2023-11-02T09:30:56.456Z,999.4
2023-11-02T09:36:49.173Z,999.4
2023-11-02T09:42:08.513Z,999.5
2023-11-02T09:47:48.339Z,999.5
2023-11-02T09:53:25.273Z,999.5
2023-11-02T09:58:43.240Z,999.4
2023-11-02T10:04:33.889Z,999.5
2023-11-02T10:09:47.672Z,999.2
2023-11-02T10:20:58.929Z,999.3
2023-11-02T10:26:27.736Z,999.2
2023-11-02T10:31:54.209Z,999.3
2023-11-02T10:37:33.086Z,999.2
2023-11-02T10:43:06.306Z,999.1
2023-11-02T10:48:37.678Z,998.9
2023-11-02T10:54:10.014Z,998.6
2023-11-02T10:59:37.704Z,998.4
2023-11-02T11:05:04.127Z,998.2
2023-11-02T11:16:19.846Z,997.9
2023-11-02T11:21:44.823Z,998
2023-11-02T11:27:17.736Z,997.9
2023-11-02T11:32:56.915Z,997.8
2023-11-02T11:38:26.600Z,997.6
2023-11-02T11:44:11.987Z,997.5
2023-11-02T11:49:44.108Z,997.4
2023-11-02T11:55:16.573Z,997.3
2023-11-02T12:00:35.860Z,997.4
2023-11-02T12:05:58.552Z,997.3
2023-11-02T12:11:53.483Z,997.1
2023-11-02T12:17:06.423Z,997.1
2023-11-02T12:22:58.220Z,996.9
2023-11-02T12:28:24.672Z,997
2023-11-02T12:33:47.513Z,996.7
2023-11-02T12:39:07.678Z,996.5
2023-11-02T12:45:00.733Z,996.3
2023-11-02T12:50:15.429Z,996
2023-11-02T12:55:46.364Z,996
2023-11-02T13:01:16.151Z,996
2023-11-02T13:07:07.745Z,995.7
2023-11-02T13:12:20.428Z,995.1
2023-11-02T13:18:08.407Z,995.7
2023-11-02T13:23:35.007Z,996.1
2023-11-02T13:28:58.166Z,995.9
2023-11-02T13:34:34.853Z,995.9
2023-11-02T13:40:03.521Z,996
2023-11-02T13:45:34.698Z,996.1
2023-11-02T13:51:16.243Z,995.7
2023-11-02T13:56:41.066Z,995.4
2023-11-02T14:02:32.586Z,995.3
2023-11-02T14:07:48.466Z,994.9
2023-11-02T14:13:30.170Z,994.8
2023-11-02T14:19:10.756Z,994.8
2023-11-02T14:24:39.490Z,994.7
2023-11-02T14:30:11.473Z,994.3
2023-11-02T14:41:21.389Z,994.1
2023-11-02T14:46:54.367Z,994
2023-11-02T14:52:07.203Z,993.8
2023-11-02T14:57:40.272Z,993.6
2023-11-02T15:03:25.900Z,993.7
2023-11-02T15:08:41.649Z,993.6
2023-11-02T15:14:25.814Z,994
2023-11-02T15:19:44.201Z,993.8
2023-11-02T15:31:02.479Z,993.7
2023-11-02T15:36:40.624Z,993.6
2023-11-02T15:42:02.971Z,993.7
2023-11-02T15:47:41.714Z,993.7
2023-11-02T15:53:20.212Z,993.6
2023-11-02T15:58:24.731Z,993.4
2023-11-02T16:04:10.432Z,993.5
2023-11-02T16:09:52.287Z,993.4
2023-11-02T16:15:25.485Z,993.4
2023-11-02T16:20:42.698Z,993.1
2023-11-02T16:26:20.634Z,993.1
2023-11-02T16:31:41.156Z,993.1
2023-11-02T16:37:38.201Z,993.1
2023-11-02T16:42:55.769Z,993.5
2023-11-02T16:48:31.111Z,993.8
2023-11-02T16:53:55.830Z,994
2023-11-02T16:59:48.070Z,994.1
2023-11-02T17:05:15.532Z,994.2
2023-11-02T17:10:35.117Z,994.1
2023-11-02T17:27:11.830Z,994.4
2023-11-02T17:32:55.299Z,994.1
2023-11-02T17:38:12.707Z,994.1
2023-11-02T17:43:43.299Z,994.1
2023-11-02T17:49:22.484Z,994.2
2023-11-02T17:54:49.154Z,994.2
2023-11-02T18:00:22.535Z,994.1
2023-11-02T18:06:08.010Z,994.1
2023-11-02T18:11:29.934Z,994.5
2023-11-02T18:17:20.385Z,994.6
2023-11-02T18:22:27.026Z,994.9
2023-11-02T18:28:10.465Z,995
2023-11-02T18:33:51.978Z,995.1
2023-11-02T18:39:00.041Z,995.2
2023-11-02T18:44:50.140Z,995.2
2023-11-02T18:50:09.046Z,995.2
2023-11-02T18:55:48.826Z,995
2023-11-02T19:01:18.348Z,994.8
2023-11-02T19:06:41.499Z,994.8
2023-11-02T19:12:27.595Z,994.8
2023-11-02T19:18:09.941Z,994.9
2023-11-02T19:23:37.790Z,994.9
2023-11-02T19:28:59.318Z,994.8
2023-11-02T19:34:33.896Z,994.9
2023-11-02T19:40:02.241Z,994.8
2023-11-02T19:56:34.081Z,995
2023-11-02T20:02:17.008Z,994.9
2023-11-02T20:07:46.057Z,994.7
2023-11-02T20:13:21.305Z,994.4
2023-11-02T20:18:50.740Z,994.1
2023-11-02T20:24:26.126Z,994.2
2023-11-02T20:29:51.270Z,994
2023-11-02T20:35:22.938Z,994.1
2023-11-02T20:40:48.131Z,994.3
2023-11-02T20:46:15.453Z,994.3
2023-11-02T20:51:47.667Z,994.4
2023-11-02T20:57:28.942Z,994.5
2023-11-02T21:02:49.538Z,994.6
2023-11-02T21:08:18.903Z,994.8
2023-11-02T21:13:59.568Z,994.9
2023-11-02T21:19:45.104Z,995.1
2023-11-02T21:24:52.241Z,995.2
2023-11-02T21:30:36.877Z,995.2
2023-11-02T21:36:16.031Z,995.3
2023-11-02T21:41:28.302Z,995.4
2023-11-02T21:47:05.308Z,995.4
2023-11-02T21:52:29.861Z,995.5
2023-11-02T21:58:19.670Z,995.5
2023-11-02T22:03:51.926Z,995.3
2023-11-02T22:09:03.961Z,995.2
2023-11-02T22:14:35.603Z,995.3
2023-11-02T22:20:11.198Z,995.3
2023-11-02T22:25:54.160Z,995.2
2023-11-02T22:31:19.071Z,995.2
2023-11-02T22:36:52.899Z,995.2
2023-11-02T22:42:25.471Z,995.1
2023-11-02T22:48:01.900Z,995
2023-11-02T22:53:38.774Z,994.8
2023-11-02T22:59:00.716Z,994.6
2023-11-02T23:04:16.366Z,994.6
2023-11-02T23:09:49.485Z,994.6
2023-11-02T23:20:53.649Z,994.5
2023-11-02T23:26:44.738Z,994.4
2023-11-02T23:32:09.733Z,994.3
2023-11-02T23:37:29.144Z,994.3
2023-11-02T23:43:07.486Z,994.3
2023-11-02T23:48:31.025Z,994.5
2023-11-02T23:54:10.559Z,994.5
2023-11-02T23:59:39.186Z,994.6
